sensor_id;sensor_type;location;lat;lon;timestamp;P1;durP1;ratioP1;P2;durP2;ratioP2
39346;SDS011;26262;49.836;6.632;2024-03-23T00:53:15;9.70;;;6.38;;
39346;SDS011;26262;49.836;6.632;2024-03-23T00:55:41;10.30;;;6.63;;
39346;SDS011;26262;49.836;6.632;2024-03-23T00:58:07;7.35;;;6.13;;
39346;SDS011;26262;49.836;6.632;2024-03-23T01:00:33;11.35;;;6.35;;
39346;SDS011;26262;49.836;6.632;2024-03-23T01:02:59;9.40;;;6.70;;
39346;SDS011;26262;49.836;6.632;2024-03-23T01:05:24;9.40;;;7.13;;
39346;SDS011;26262;49.836;6.632;2024-03-23T01:07:50;8.15;;;7.20;;
39346;SDS011;26262;49.836;6.632;2024-03-23T01:10:15;10.10;;;7.28;;
39346;SDS011;26262;49.836;6.632;2024-03-23T01:12:41;10.80;;;6.45;;
39346;SDS011;26262;49.836;6.632;2024-03-23T01:15:06;8.27;;;6.30;;
39346;SDS011;26262;49.836;6.632;2024-03-23T01:17:32;22.48;;;7.40;;
39346;SDS011;26262;49.836;6.632;2024-03-23T01:19:57;10.02;;;7.05;;
39346;SDS011;26262;49.836;6.632;2024-03-23T01:22:23;9.68;;;7.30;;
39346;SDS011;26262;49.836;6.632;2024-03-23T01:24:49;10.82;;;6.82;;
39346;SDS011;26262;49.836;6.632;2024-03-23T01:27:14;9.77;;;6.97;;
39346;SDS011;26262;49.836;6.632;2024-03-23T01:29:40;14.65;;;7.25;;
39346;SDS011;26262;49.836;6.632;2024-03-23T01:32:05;9.63;;;7.65;;
39346;SDS011;26262;49.836;6.632;2024-03-23T01:34:31;11.23;;;7.93;;
39346;SDS011;26262;49.836;6.632;2024-03-23T01:36:57;9.68;;;7.63;;
39346;SDS011;26262;49.836;6.632;2024-03-23T01:39:23;10.65;;;7.80;;
39346;SDS011;26262;49.836;6.632;2024-03-23T01:41:49;12.93;;;8.57;;
39346;SDS011;26262;49.836;6.632;2024-03-23T01:44:14;12.10;;;8.75;;
39346;SDS011;26262;49.836;6.632;2024-03-23T01:46:41;10.38;;;8.75;;
39346;SDS011;26262;49.836;6.632;2024-03-23T01:49:07;10.90;;;8.73;;
39346;SDS011;26262;49.836;6.632;2024-03-23T01:51:34;14.20;;;9.07;;
39346;SDS011;26262;49.836;6.632;2024-03-23T01:54:03;12.53;;;9.83;;
39346;SDS011;26262;49.836;6.632;2024-03-23T01:56:34;12.13;;;9.18;;
39346;SDS011;26262;49.836;6.632;2024-03-23T01:59:03;10.77;;;8.20;;
39346;SDS011;26262;49.836;6.632;2024-03-23T02:01:30;12.57;;;9.55;;
39346;SDS011;26262;49.836;6.632;2024-03-23T02:03:55;11.35;;;8.98;;
39346;SDS011;26262;49.836;6.632;2024-03-23T02:06:21;12.57;;;8.82;;
39346;SDS011;26262;49.836;6.632;2024-03-23T02:08:47;12.45;;;9.23;;
39346;SDS011;26262;49.836;6.632;2024-03-23T02:11:13;8.32;;;6.30;;
39346;SDS011;26262;49.836;6.632;2024-03-23T02:13:39;9.50;;;7.30;;
39346;SDS011;26262;49.836;6.632;2024-03-23T02:16:05;8.18;;;6.13;;
39346;SDS011;26262;49.836;6.632;2024-03-23T02:18:30;8.23;;;5.38;;
39346;SDS011;26262;49.836;6.632;2024-03-23T02:20:56;5.25;;;4.43;;
39346;SDS011;26262;49.836;6.632;2024-03-23T02:23:22;5.00;;;2.83;;
39346;SDS011;26262;49.836;6.632;2024-03-23T02:25:49;4.78;;;2.53;;
39346;SDS011;26262;49.836;6.632;2024-03-23T02:28:15;4.60;;;2.80;;
39346;SDS011;26262;49.836;6.632;2024-03-23T02:30:40;3.92;;;1.92;;
39346;SDS011;26262;49.836;6.632;2024-03-23T02:33:06;2.80;;;1.95;;
39346;SDS011;26262;49.836;6.632;2024-03-23T02:35:31;2.92;;;1.83;;
39346;SDS011;26262;49.836;6.632;2024-03-23T02:37:57;2.95;;;1.80;;
39346;SDS011;26262;49.836;6.632;2024-03-23T02:40:23;3.47;;;1.70;;
39346;SDS011;26262;49.836;6.632;2024-03-23T02:42:49;2.63;;;1.42;;
39346;SDS011;26262;49.836;6.632;2024-03-23T02:45:15;2.20;;;1.60;;
39346;SDS011;26262;49.836;6.632;2024-03-23T02:47:40;2.65;;;1.75;;
39346;SDS011;26262;49.836;6.632;2024-03-23T02:50:06;2.90;;;1.45;;
39346;SDS011;26262;49.836;6.632;2024-03-23T02:52:32;2.80;;;1.55;;
39346;SDS011;26262;49.836;6.632;2024-03-23T02:54:57;4.32;;;1.83;;
39346;SDS011;26262;49.836;6.632;2024-03-23T02:57:23;4.03;;;1.70;;
39346;SDS011;26262;49.836;6.632;2024-03-23T02:59:49;2.35;;;1.60;;
39346;SDS011;26262;49.836;6.632;2024-03-23T03:02:14;3.78;;;1.83;;
39346;SDS011;26262;49.836;6.632;2024-03-23T03:04:40;2.17;;;1.42;;
39346;SDS011;26262;49.836;6.632;2024-03-23T03:07:06;3.40;;;1.67;;
39346;SDS011;26262;49.836;6.632;2024-03-23T03:09:31;2.10;;;1.33;;
39346;SDS011;26262;49.836;6.632;2024-03-23T03:11:57;2.53;;;1.35;;
39346;SDS011;26262;49.836;6.632;2024-03-23T03:14:23;3.70;;;1.70;;
39346;SDS011;26262;49.836;6.632;2024-03-23T03:16:49;2.85;;;1.40;;
39346;SDS011;26262;49.836;6.632;2024-03-23T03:19:14;2.42;;;1.30;;
39346;SDS011;26262;49.836;6.632;2024-03-23T03:21:41;1.63;;;1.10;;
39346;SDS011;26262;49.836;6.632;2024-03-23T03:24:07;1.52;;;1.17;;
39346;SDS011;26262;49.836;6.632;2024-03-23T03:26:32;1.67;;;1.10;;
39346;SDS011;26262;49.836;6.632;2024-03-23T03:28:58;1.45;;;0.93;;
39346;SDS011;26262;49.836;6.632;2024-03-23T03:31:23;1.67;;;1.10;;
39346;SDS011;26262;49.836;6.632;2024-03-23T03:33:49;1.85;;;0.90;;
39346;SDS011;26262;49.836;6.632;2024-03-23T03:36:15;0.82;;;0.68;;
39346;SDS011;26262;49.836;6.632;2024-03-23T03:38:41;1.73;;;0.80;;
39346;SDS011;26262;49.836;6.632;2024-03-23T03:41:06;1.60;;;0.90;;
39346;SDS011;26262;49.836;6.632;2024-03-23T03:43:32;2.13;;;0.95;;
39346;SDS011;26262;49.836;6.632;2024-03-23T03:45:58;2.83;;;1.00;;
39346;SDS011;26262;49.836;6.632;2024-03-23T03:48:25;2.00;;;1.00;;
39346;SDS011;26262;49.836;6.632;2024-03-23T03:50:52;1.55;;;1.10;;
39346;SDS011;26262;49.836;6.632;2024-03-23T03:53:17;0.77;;;0.73;;
39346;SDS011;26262;49.836;6.632;2024-03-23T03:55:43;0.80;;;0.80;;
39346;SDS011;26262;49.836;6.632;2024-03-23T03:58:09;2.05;;;0.63;;
39346;SDS011;26262;49.836;6.632;2024-03-23T04:00:34;0.80;;;0.77;;
39346;SDS011;26262;49.836;6.632;2024-03-23T04:03:00;1.48;;;0.65;;
39346;SDS011;26262;49.836;6.632;2024-03-23T04:05:26;1.25;;;0.73;;
39346;SDS011;26262;49.836;6.632;2024-03-23T04:07:52;0.73;;;0.65;;
39346;SDS011;26262;49.836;6.632;2024-03-23T04:10:17;1.23;;;0.88;;
39346;SDS011;26262;49.836;6.632;2024-03-23T04:12:43;1.63;;;0.80;;
39346;SDS011;26262;49.836;6.632;2024-03-23T04:15:09;0.75;;;0.75;;
39346;SDS011;26262;49.836;6.632;2024-03-23T04:17:34;1.15;;;0.75;;
39346;SDS011;26262;49.836;6.632;2024-03-23T04:20:00;0.85;;;0.70;;
39346;SDS011;26262;49.836;6.632;2024-03-23T04:22:29;1.65;;;0.80;;
39346;SDS011;26262;49.836;6.632;2024-03-23T04:24:54;1.02;;;0.73;;
39346;SDS011;26262;49.836;6.632;2024-03-23T04:27:21;1.98;;;0.80;;
39346;SDS011;26262;49.836;6.632;2024-03-23T04:29:55;1.33;;;0.88;;
39346;SDS011;26262;49.836;6.632;2024-03-23T04:32:21;2.92;;;0.80;;
39346;SDS011;26262;49.836;6.632;2024-03-23T04:34:46;1.25;;;0.88;;
39346;SDS011;26262;49.836;6.632;2024-03-23T04:37:12;1.35;;;0.90;;
39346;SDS011;26262;49.836;6.632;2024-03-23T04:39:38;1.40;;;0.80;;
39346;SDS011;26262;49.836;6.632;2024-03-23T04:42:03;1.20;;;0.82;;
39346;SDS011;26262;49.836;6.632;2024-03-23T04:44:29;3.45;;;1.20;;
39346;SDS011;26262;49.836;6.632;2024-03-23T04:46:56;1.05;;;0.80;;
39346;SDS011;26262;49.836;6.632;2024-03-23T04:49:25;2.33;;;1.13;;
39346;SDS011;26262;49.836;6.632;2024-03-23T04:51:51;2.25;;;0.80;;
39346;SDS011;26262;49.836;6.632;2024-03-23T04:54:16;1.67;;;1.00;;
39346;SDS011;26262;49.836;6.632;2024-03-23T04:56:42;2.20;;;0.95;;
39346;SDS011;26262;49.836;6.632;2024-03-23T04:59:07;1.35;;;0.90;;
39346;SDS011;26262;49.836;6.632;2024-03-23T05:01:33;2.20;;;1.02;;
39346;SDS011;26262;49.836;6.632;2024-03-23T05:03:59;2.28;;;0.90;;
39346;SDS011;26262;49.836;6.632;2024-03-23T05:06:25;1.98;;;0.80;;
39346;SDS011;26262;49.836;6.632;2024-03-23T05:08:51;2.25;;;0.70;;
39346;SDS011;26262;49.836;6.632;2024-03-23T05:11:17;2.63;;;0.82;;
39346;SDS011;26262;49.836;6.632;2024-03-23T05:13:42;2.35;;;0.68;;
39346;SDS011;26262;49.836;6.632;2024-03-23T05:16:08;1.75;;;1.00;;
39346;SDS011;26262;49.836;6.632;2024-03-23T05:18:34;1.98;;;0.90;;
39346;SDS011;26262;49.836;6.632;2024-03-23T05:21:00;3.10;;;1.70;;
39346;SDS011;26262;49.836;6.632;2024-03-23T05:23:27;2.63;;;0.90;;
39346;SDS011;26262;49.836;6.632;2024-03-23T05:25:53;1.88;;;0.98;;
39346;SDS011;26262;49.836;6.632;2024-03-23T05:28:19;3.40;;;0.95;;
39346;SDS011;26262;49.836;6.632;2024-03-23T05:30:52;1.38;;;0.90;;
39346;SDS011;26262;49.836;6.632;2024-03-23T05:33:18;2.80;;;1.10;;
39346;SDS011;26262;49.836;6.632;2024-03-23T05:35:44;3.42;;;1.10;;
39346;SDS011;26262;49.836;6.632;2024-03-23T05:38:10;3.10;;;1.15;;
39346;SDS011;26262;49.836;6.632;2024-03-23T05:40:36;1.38;;;0.80;;
39346;SDS011;26262;49.836;6.632;2024-03-23T05:43:02;2.40;;;1.10;;
39346;SDS011;26262;49.836;6.632;2024-03-23T05:45:28;5.38;;;1.67;;
39346;SDS011;26262;49.836;6.632;2024-03-23T05:47:54;2.17;;;1.10;;
39346;SDS011;26262;49.836;6.632;2024-03-23T05:50:21;5.35;;;1.17;;
39346;SDS011;26262;49.836;6.632;2024-03-23T05:52:47;4.63;;;1.33;;
39346;SDS011;26262;49.836;6.632;2024-03-23T05:55:13;4.72;;;1.52;;
39346;SDS011;26262;49.836;6.632;2024-03-23T05:57:39;6.05;;;1.88;;
39346;SDS011;26262;49.836;6.632;2024-03-23T06:00:05;6.47;;;1.70;;
39346;SDS011;26262;49.836;6.632;2024-03-23T06:02:40;5.38;;;1.75;;
39346;SDS011;26262;49.836;6.632;2024-03-23T06:05:10;4.72;;;1.60;;
39346;SDS011;26262;49.836;6.632;2024-03-23T06:07:36;4.10;;;1.40;;
39346;SDS011;26262;49.836;6.632;2024-03-23T06:10:01;3.08;;;1.30;;
39346;SDS011;26262;49.836;6.632;2024-03-23T06:12:27;4.82;;;1.60;;
39346;SDS011;26262;49.836;6.632;2024-03-23T06:14:53;3.47;;;1.38;;
39346;SDS011;26262;49.836;6.632;2024-03-23T06:17:18;3.35;;;1.70;;
39346;SDS011;26262;49.836;6.632;2024-03-23T06:19:44;2.60;;;1.50;;
39346;SDS011;26262;49.836;6.632;2024-03-23T06:22:09;7.60;;;2.05;;
39346;SDS011;26262;49.836;6.632;2024-03-23T06:24:35;7.30;;;1.85;;
39346;SDS011;26262;49.836;6.632;2024-03-23T06:27:00;7.20;;;1.90;;
39346;SDS011;26262;49.836;6.632;2024-03-23T06:29:26;6.57;;;2.53;;
39346;SDS011;26262;49.836;6.632;2024-03-23T06:31:52;7.78;;;2.60;;
39346;SDS011;26262;49.836;6.632;2024-03-23T06:34:19;5.38;;;2.45;;
39346;SDS011;26262;49.836;6.632;2024-03-23T06:36:46;9.18;;;4.57;;
39346;SDS011;26262;49.836;6.632;2024-03-23T06:39:12;7.80;;;3.13;;
39346;SDS011;26262;49.836;6.632;2024-03-23T06:41:40;6.25;;;3.03;;
39346;SDS011;26262;49.836;6.632;2024-03-23T06:44:16;8.02;;;3.75;;
39346;SDS011;26262;49.836;6.632;2024-03-23T06:46:42;10.95;;;4.82;;
39346;SDS011;26262;49.836;6.632;2024-03-23T06:49:08;14.40;;;5.07;;
39346;SDS011;26262;49.836;6.632;2024-03-23T06:51:33;12.10;;;4.45;;
39346;SDS011;26262;49.836;6.632;2024-03-23T06:53:59;12.45;;;5.00;;
39346;SDS011;26262;49.836;6.632;2024-03-23T06:56:24;9.88;;;4.80;;
39346;SDS011;26262;49.836;6.632;2024-03-23T06:58:50;8.70;;;4.35;;
39346;SDS011;26262;49.836;6.632;2024-03-23T07:01:15;9.43;;;4.65;;
39346;SDS011;26262;49.836;6.632;2024-03-23T07:03:41;8.48;;;4.60;;
39346;SDS011;26262;49.836;6.632;2024-03-23T07:06:07;10.82;;;5.45;;
39346;SDS011;26262;49.836;6.632;2024-03-23T07:08:35;11.20;;;5.07;;
39346;SDS011;26262;49.836;6.632;2024-03-23T07:11:01;12.25;;;5.18;;
39346;SDS011;26262;49.836;6.632;2024-03-23T07:13:27;12.48;;;5.47;;
39346;SDS011;26262;49.836;6.632;2024-03-23T07:15:53;15.77;;;5.70;;
39346;SDS011;26262;49.836;6.632;2024-03-23T07:18:20;10.70;;;5.10;;
39346;SDS011;26262;49.836;6.632;2024-03-23T07:20:53;11.70;;;5.63;;
39346;SDS011;26262;49.836;6.632;2024-03-23T07:23:19;12.10;;;5.65;;
39346;SDS011;26262;49.836;6.632;2024-03-23T07:25:44;13.00;;;5.80;;
39346;SDS011;26262;49.836;6.632;2024-03-23T07:28:10;9.82;;;5.95;;
39346;SDS011;26262;49.836;6.632;2024-03-23T07:30:35;9.70;;;5.68;;
39346;SDS011;26262;49.836;6.632;2024-03-23T07:33:01;13.60;;;5.45;;
39346;SDS011;26262;49.836;6.632;2024-03-23T07:35:26;12.93;;;6.13;;
39346;SDS011;26262;49.836;6.632;2024-03-23T07:37:52;10.80;;;5.82;;
39346;SDS011;26262;49.836;6.632;2024-03-23T07:40:18;11.63;;;5.60;;
39346;SDS011;26262;49.836;6.632;2024-03-23T07:42:43;17.83;;;6.85;;
39346;SDS011;26262;49.836;6.632;2024-03-23T07:45:09;12.70;;;6.55;;
39346;SDS011;26262;49.836;6.632;2024-03-23T07:47:35;12.20;;;6.28;;
39346;SDS011;26262;49.836;6.632;2024-03-23T07:50:01;10.40;;;6.15;;
39346;SDS011;26262;49.836;6.632;2024-03-23T07:52:29;13.95;;;6.75;;
39346;SDS011;26262;49.836;6.632;2024-03-23T07:54:54;11.90;;;5.95;;
39346;SDS011;26262;49.836;6.632;2024-03-23T07:57:20;18.63;;;7.95;;
39346;SDS011;26262;49.836;6.632;2024-03-23T07:59:46;16.25;;;7.20;;
39346;SDS011;26262;49.836;6.632;2024-03-23T08:02:11;18.10;;;6.00;;
39346;SDS011;26262;49.836;6.632;2024-03-23T08:04:37;12.95;;;7.53;;
39346;SDS011;26262;49.836;6.632;2024-03-23T08:07:02;12.98;;;6.90;;
39346;SDS011;26262;49.836;6.632;2024-03-23T08:09:28;11.38;;;6.65;;
39346;SDS011;26262;49.836;6.632;2024-03-23T08:11:54;13.43;;;6.78;;
39346;SDS011;26262;49.836;6.632;2024-03-23T08:14:19;11.48;;;5.95;;
39346;SDS011;26262;49.836;6.632;2024-03-23T08:16:45;12.13;;;6.28;;
39346;SDS011;26262;49.836;6.632;2024-03-23T08:19:14;16.05;;;7.03;;
39346;SDS011;26262;49.836;6.632;2024-03-23T08:21:39;11.85;;;6.75;;
39346;SDS011;26262;49.836;6.632;2024-03-23T08:24:05;13.45;;;6.63;;
39346;SDS011;26262;49.836;6.632;2024-03-23T08:26:31;14.20;;;6.75;;
39346;SDS011;26262;49.836;6.632;2024-03-23T08:28:56;16.63;;;7.22;;
39346;SDS011;26262;49.836;6.632;2024-03-23T08:31:22;13.02;;;6.78;;
39346;SDS011;26262;49.836;6.632;2024-03-23T08:33:47;11.68;;;6.80;;
39346;SDS011;26262;49.836;6.632;2024-03-23T08:36:13;11.38;;;5.82;;
39346;SDS011;26262;49.836;6.632;2024-03-23T08:38:41;11.75;;;6.28;;
39346;SDS011;26262;49.836;6.632;2024-03-23T08:43:37;13.55;;;6.78;;
39346;SDS011;26262;49.836;6.632;2024-03-23T08:46:04;12.70;;;6.22;;
39346;SDS011;26262;49.836;6.632;2024-03-23T08:48:31;9.65;;;5.07;;
39346;SDS011;26262;49.836;6.632;2024-03-23T08:51:05;13.10;;;6.30;;
39346;SDS011;26262;49.836;6.632;2024-03-23T08:53:34;14.02;;;6.50;;
39346;SDS011;26262;49.836;6.632;2024-03-23T08:56:00;12.98;;;6.03;;
39346;SDS011;26262;49.836;6.632;2024-03-23T08:58:27;15.27;;;6.43;;
39346;SDS011;26262;49.836;6.632;2024-03-23T09:00:54;14.75;;;5.97;;
39346;SDS011;26262;49.836;6.632;2024-03-23T09:03:21;15.85;;;6.75;;
39346;SDS011;26262;49.836;6.632;2024-03-23T09:05:51;10.98;;;6.18;;
39346;SDS011;26262;49.836;6.632;2024-03-23T09:08:17;17.60;;;5.93;;
39346;SDS011;26262;49.836;6.632;2024-03-23T09:10:43;11.35;;;5.55;;
39346;SDS011;26262;49.836;6.632;2024-03-23T09:13:09;13.57;;;5.10;;
39346;SDS011;26262;49.836;6.632;2024-03-23T09:15:35;6.68;;;2.85;;
39346;SDS011;26262;49.836;6.632;2024-03-23T09:18:02;11.40;;;5.10;;
39346;SDS011;26262;49.836;6.632;2024-03-23T09:20:28;10.88;;;4.35;;
39346;SDS011;26262;49.836;6.632;2024-03-23T09:22:54;9.65;;;4.47;;
39346;SDS011;26262;49.836;6.632;2024-03-23T09:25:19;9.82;;;3.42;;
39346;SDS011;26262;49.836;6.632;2024-03-23T09:27:48;8.23;;;3.53;;
39346;SDS011;26262;49.836;6.632;2024-03-23T09:30:14;8.88;;;3.53;;
39346;SDS011;26262;49.836;6.632;2024-03-23T09:32:43;11.10;;;4.30;;
39346;SDS011;26262;49.836;6.632;2024-03-23T09:35:09;8.07;;;3.55;;
39346;SDS011;26262;49.836;6.632;2024-03-23T09:37:35;11.07;;;3.63;;
39346;SDS011;26262;49.836;6.632;2024-03-23T09:40:01;9.43;;;3.30;;
39346;SDS011;26262;49.836;6.632;2024-03-23T09:42:28;12.13;;;4.40;;
39346;SDS011;26262;49.836;6.632;2024-03-23T09:44:53;9.10;;;3.55;;
39346;SDS011;26262;49.836;6.632;2024-03-23T09:47:22;11.52;;;4.47;;
39346;SDS011;26262;49.836;6.632;2024-03-23T09:49:49;12.98;;;3.75;;
39346;SDS011;26262;49.836;6.632;2024-03-23T09:52:15;10.25;;;3.05;;
39346;SDS011;26262;49.836;6.632;2024-03-23T09:54:41;8.23;;;3.10;;
39346;SDS011;26262;49.836;6.632;2024-03-23T09:57:07;10.00;;;3.88;;
39346;SDS011;26262;49.836;6.632;2024-03-23T09:59:33;10.32;;;3.65;;
39346;SDS011;26262;49.836;6.632;2024-03-23T10:01:59;7.10;;;2.95;;
39346;SDS011;26262;49.836;6.632;2024-03-23T10:04:38;10.27;;;3.78;;
39346;SDS011;26262;49.836;6.632;2024-03-23T10:07:15;9.20;;;3.95;;
39346;SDS011;26262;49.836;6.632;2024-03-23T10:09:43;7.85;;;3.30;;
39346;SDS011;26262;49.836;6.632;2024-03-23T10:12:12;11.02;;;3.55;;
39346;SDS011;26262;49.836;6.632;2024-03-23T10:14:41;8.57;;;3.30;;
39346;SDS011;26262;49.836;6.632;2024-03-23T10:17:16;11.32;;;3.97;;
39346;SDS011;26262;49.836;6.632;2024-03-23T10:19:43;8.93;;;3.05;;
39346;SDS011;26262;49.836;6.632;2024-03-23T10:22:14;10.43;;;2.85;;
39346;SDS011;26262;49.836;6.632;2024-03-23T10:24:44;9.35;;;2.80;;
39346;SDS011;26262;49.836;6.632;2024-03-23T10:27:29;7.40;;;2.60;;
39346;SDS011;26262;49.836;6.632;2024-03-23T10:29:54;8.10;;;2.72;;
39346;SDS011;26262;49.836;6.632;2024-03-23T10:32:42;9.30;;;2.90;;
39346;SDS011;26262;49.836;6.632;2024-03-23T10:35:14;6.72;;;1.85;;
39346;SDS011;26262;49.836;6.632;2024-03-23T10:37:44;7.97;;;2.20;;
39346;SDS011;26262;49.836;6.632;2024-03-23T10:40:12;6.38;;;1.70;;
39346;SDS011;26262;49.836;6.632;2024-03-23T10:42:38;6.50;;;2.60;;
39346;SDS011;26262;49.836;6.632;2024-03-23T10:45:05;6.68;;;1.52;;
39346;SDS011;26262;49.836;6.632;2024-03-23T10:47:34;10.68;;;2.33;;
39346;SDS011;26262;49.836;6.632;2024-03-23T10:50:04;4.95;;;1.40;;
39346;SDS011;26262;49.836;6.632;2024-03-23T12:32:01;8.23;;;3.42;;
39346;SDS011;26262;49.836;6.632;2024-03-23T12:34:27;7.95;;;3.00;;
39346;SDS011;26262;49.836;6.632;2024-03-23T12:36:55;13.63;;;6.43;;
39346;SDS011;26262;49.836;6.632;2024-03-23T12:39:21;6.13;;;2.38;;
39346;SDS011;26262;49.836;6.632;2024-03-23T12:41:46;3.28;;;0.90;;
39346;SDS011;26262;49.836;6.632;2024-03-23T12:44:13;4.68;;;2.00;;
39346;SDS011;26262;49.836;6.632;2024-03-23T12:46:40;6.40;;;2.90;;
39346;SDS011;26262;49.836;6.632;2024-03-23T12:49:09;4.82;;;1.70;;
39346;SDS011;26262;49.836;6.632;2024-03-23T12:51:35;6.50;;;2.13;;
39346;SDS011;26262;49.836;6.632;2024-03-23T12:54:01;3.92;;;0.70;;
39346;SDS011;26262;49.836;6.632;2024-03-23T12:56:27;3.03;;;1.17;;
39346;SDS011;26262;49.836;6.632;2024-03-23T12:58:56;3.00;;;1.00;;
39346;SDS011;26262;49.836;6.632;2024-03-23T13:01:25;3.92;;;1.90;;
39346;SDS011;26262;49.836;6.632;2024-03-23T13:03:50;3.80;;;1.05;;
39346;SDS011;26262;49.836;6.632;2024-03-23T13:06:16;1.88;;;0.95;;
39346;SDS011;26262;49.836;6.632;2024-03-23T13:08:46;3.90;;;1.27;;
39346;SDS011;26262;49.836;6.632;2024-03-23T13:11:12;3.03;;;0.70;;
39346;SDS011;26262;49.836;6.632;2024-03-23T13:13:38;8.05;;;2.13;;
39346;SDS011;26262;49.836;6.632;2024-03-23T13:16:04;2.53;;;0.70;;
39346;SDS011;26262;49.836;6.632;2024-03-23T13:18:30;3.75;;;0.82;;
39346;SDS011;26262;49.836;6.632;2024-03-23T13:20:56;3.03;;;0.70;;
39346;SDS011;26262;49.836;6.632;2024-03-23T13:23:22;3.15;;;0.60;;
39346;SDS011;26262;49.836;6.632;2024-03-23T13:25:54;2.28;;;1.05;;
39346;SDS011;26262;49.836;6.632;2024-03-23T13:28:23;5.57;;;1.15;;
39346;SDS011;26262;49.836;6.632;2024-03-23T13:30:49;3.95;;;1.05;;
39346;SDS011;26262;49.836;6.632;2024-03-23T13:33:18;3.58;;;0.80;;
39346;SDS011;26262;49.836;6.632;2024-03-23T13:38:15;5.75;;;1.98;;
39346;SDS011;26262;49.836;6.632;2024-03-23T13:40:48;3.80;;;0.77;;
39346;SDS011;26262;49.836;6.632;2024-03-23T13:43:17;2.72;;;1.27;;
39346;SDS011;26262;49.836;6.632;2024-03-23T13:45:43;1.77;;;0.57;;
39346;SDS011;26262;49.836;6.632;2024-03-23T13:48:09;5.32;;;1.52;;
39346;SDS011;26262;49.836;6.632;2024-03-23T13:50:35;4.85;;;1.33;;
39346;SDS011;26262;49.836;6.632;2024-03-23T13:53:00;2.42;;;0.75;;
39346;SDS011;26262;49.836;6.632;2024-03-23T13:55:26;1.20;;;0.70;;
39346;SDS011;26262;49.836;6.632;2024-03-23T13:57:51;2.03;;;0.82;;
39346;SDS011;26262;49.836;6.632;2024-03-23T14:00:17;2.10;;;0.75;;
39346;SDS011;26262;49.836;6.632;2024-03-23T14:02:43;2.67;;;0.95;;
39346;SDS011;26262;49.836;6.632;2024-03-23T14:05:09;1.98;;;0.75;;
39346;SDS011;26262;49.836;6.632;2024-03-23T14:07:36;1.83;;;0.55;;
39346;SDS011;26262;49.836;6.632;2024-03-23T14:10:02;2.25;;;0.65;;
39346;SDS011;26262;49.836;6.632;2024-03-23T14:12:29;1.85;;;0.70;;
39346;SDS011;26262;49.836;6.632;2024-03-23T14:14:55;1.63;;;0.70;;
39346;SDS011;26262;49.836;6.632;2024-03-23T14:17:20;3.58;;;1.42;;
39346;SDS011;26262;49.836;6.632;2024-03-23T14:19:46;3.38;;;1.23;;
39346;SDS011;26262;49.836;6.632;2024-03-23T14:22:12;2.63;;;0.90;;
39346;SDS011;26262;49.836;6.632;2024-03-23T14:24:37;3.08;;;0.80;;
39346;SDS011;26262;49.836;6.632;2024-03-23T14:27:03;2.42;;;0.70;;
39346;SDS011;26262;49.836;6.632;2024-03-23T14:29:30;3.53;;;0.70;;
39346;SDS011;26262;49.836;6.632;2024-03-23T14:31:56;3.22;;;0.60;;
39346;SDS011;26262;49.836;6.632;2024-03-23T14:34:22;5.63;;;1.52;;
39346;SDS011;26262;49.836;6.632;2024-03-23T14:36:51;4.20;;;1.10;;
39346;SDS011;26262;49.836;6.632;2024-03-23T14:39:16;2.25;;;0.70;;
39346;SDS011;26262;49.836;6.632;2024-03-23T14:41:42;4.43;;;1.30;;
39346;SDS011;26262;49.836;6.632;2024-03-23T14:44:07;6.32;;;1.10;;
39346;SDS011;26262;49.836;6.632;2024-03-23T14:46:33;3.83;;;0.70;;
39346;SDS011;26262;49.836;6.632;2024-03-23T14:48:58;3.50;;;0.98;;
39346;SDS011;26262;49.836;6.632;2024-03-23T14:51:24;3.40;;;0.80;;
39346;SDS011;26262;49.836;6.632;2024-03-23T14:53:49;3.88;;;0.75;;
39346;SDS011;26262;49.836;6.632;2024-03-23T14:56:15;3.05;;;0.60;;
39346;SDS011;26262;49.836;6.632;2024-03-23T14:58:41;1.65;;;0.50;;
39346;SDS011;26262;49.836;6.632;2024-03-23T15:01:07;8.73;;;1.27;;
39346;SDS011;26262;49.836;6.632;2024-03-23T15:06:00;3.33;;;0.82;;
39346;SDS011;26262;49.836;6.632;2024-03-23T15:08:26;2.03;;;0.93;;
39346;SDS011;26262;49.836;6.632;2024-03-23T15:10:58;3.20;;;0.80;;
39346;SDS011;26262;49.836;6.632;2024-03-23T15:13:24;2.85;;;0.75;;
39346;SDS011;26262;49.836;6.632;2024-03-23T15:15:50;1.48;;;0.47;;
39346;SDS011;26262;49.836;6.632;2024-03-23T15:18:17;2.15;;;0.55;;
39346;SDS011;26262;49.836;6.632;2024-03-23T15:20:57;2.72;;;0.77;;
39346;SDS011;26262;49.836;6.632;2024-03-23T15:23:27;4.55;;;0.90;;
39346;SDS011;26262;49.836;6.632;2024-03-23T15:25:59;3.83;;;0.70;;
39346;SDS011;26262;49.836;6.632;2024-03-23T15:28:26;4.28;;;0.93;;
39346;SDS011;26262;49.836;6.632;2024-03-23T15:31:06;1.40;;;0.88;;
39346;SDS011;26262;49.836;6.632;2024-03-23T15:33:35;3.35;;;0.77;;
39346;SDS011;26262;49.836;6.632;2024-03-23T15:36:04;3.45;;;0.47;;
39346;SDS011;26262;49.836;6.632;2024-03-23T15:38:33;2.33;;;0.65;;
39346;SDS011;26262;49.836;6.632;2024-03-23T15:40:59;0.85;;;0.30;;
39346;SDS011;26262;49.836;6.632;2024-03-23T15:43:24;3.00;;;0.57;;
39346;SDS011;26262;49.836;6.632;2024-03-23T15:45:58;1.17;;;0.70;;
39346;SDS011;26262;49.836;6.632;2024-03-23T15:48:30;2.10;;;0.73;;
39346;SDS011;26262;49.836;6.632;2024-03-23T15:50:59;2.72;;;1.00;;
39346;SDS011;26262;49.836;6.632;2024-03-23T15:53:27;3.10;;;0.90;;
39346;SDS011;26262;49.836;6.632;2024-03-23T15:56:02;3.35;;;0.98;;
39346;SDS011;26262;49.836;6.632;2024-03-23T15:58:32;2.13;;;0.68;;
39346;SDS011;26262;49.836;6.632;2024-03-23T16:03:28;1.40;;;0.52;;
39346;SDS011;26262;49.836;6.632;2024-03-23T16:08:24;2.95;;;0.90;;
39346;SDS011;26262;49.836;6.632;2024-03-23T16:10:50;1.58;;;0.63;;
39346;SDS011;26262;49.836;6.632;2024-03-23T16:13:17;2.97;;;0.90;;
39346;SDS011;26262;49.836;6.632;2024-03-23T16:15:46;2.95;;;0.85;;
39346;SDS011;26262;49.836;6.632;2024-03-23T16:18:21;2.20;;;0.70;;
39346;SDS011;26262;49.836;6.632;2024-03-23T16:20:56;4.05;;;0.70;;
39346;SDS011;26262;49.836;6.632;2024-03-23T16:23:24;1.83;;;1.00;;
39346;SDS011;26262;49.836;6.632;2024-03-23T16:25:50;3.72;;;0.77;;
39346;SDS011;26262;49.836;6.632;2024-03-23T16:28:30;3.38;;;0.70;;
39346;SDS011;26262;49.836;6.632;2024-03-23T16:31:00;6.00;;;0.90;;
39346;SDS011;26262;49.836;6.632;2024-03-23T16:33:28;4.85;;;0.60;;
39346;SDS011;26262;49.836;6.632;2024-03-23T16:36:03;3.20;;;0.70;;
39346;SDS011;26262;49.836;6.632;2024-03-23T16:38:39;1.77;;;0.50;;
39346;SDS011;26262;49.836;6.632;2024-03-23T16:41:06;2.80;;;0.60;;
39346;SDS011;26262;49.836;6.632;2024-03-23T16:43:41;1.90;;;0.90;;
39346;SDS011;26262;49.836;6.632;2024-03-23T16:46:07;3.10;;;0.90;;
39346;SDS011;26262;49.836;6.632;2024-03-23T16:48:36;1.75;;;0.50;;
39346;SDS011;26262;49.836;6.632;2024-03-23T16:51:04;2.38;;;0.60;;
39346;SDS011;26262;49.836;6.632;2024-03-23T16:53:30;1.73;;;0.32;;
39346;SDS011;26262;49.836;6.632;2024-03-23T16:55:57;2.25;;;0.55;;
39346;SDS011;26262;49.836;6.632;2024-03-23T16:58:27;2.58;;;0.90;;
39346;SDS011;26262;49.836;6.632;2024-03-23T17:01:02;2.28;;;0.60;;
39346;SDS011;26262;49.836;6.632;2024-03-23T17:03:29;3.17;;;0.70;;
39346;SDS011;26262;49.836;6.632;2024-03-23T17:05:55;1.42;;;0.60;;
39346;SDS011;26262;49.836;6.632;2024-03-23T17:08:20;2.80;;;1.10;;
39346;SDS011;26262;49.836;6.632;2024-03-23T17:10:46;1.02;;;0.50;;
39346;SDS011;26262;49.836;6.632;2024-03-23T17:13:12;4.20;;;0.85;;
39346;SDS011;26262;49.836;6.632;2024-03-23T17:15:44;2.25;;;0.85;;
39346;SDS011;26262;49.836;6.632;2024-03-23T17:18:10;6.38;;;1.05;;
39346;SDS011;26262;49.836;6.632;2024-03-23T17:20:36;4.38;;;0.90;;
39346;SDS011;26262;49.836;6.632;2024-03-23T17:23:02;3.25;;;0.90;;
39346;SDS011;26262;49.836;6.632;2024-03-23T17:25:28;2.03;;;0.80;;
39346;SDS011;26262;49.836;6.632;2024-03-23T17:27:53;3.50;;;0.90;;